createdAt,value
2019-06-01T00:01:33.319Z,99.90
2019-06-01T00:04:04.880Z,99.90
2019-06-01T00:06:36.444Z,99.90
2019-06-01T00:09:08.795Z,99.90
2019-06-01T00:11:41.253Z,99.90
2019-06-01T00:14:12.884Z,99.90
2019-06-01T00:16:45.890Z,99.90
2019-06-01T00:19:17.750Z,99.90
2019-06-01T00:21:49.521Z,99.90
2019-06-01T00:24:21.674Z,99.90
2019-06-01T00:26:53.532Z,99.90
2019-06-01T00:29:24.990Z,99.90
2019-06-01T00:31:56.563Z,99.90
2019-06-01T00:34:27.973Z,99.90
2019-06-01T00:36:59.216Z,99.90
2019-06-01T00:39:30.995Z,99.90
2019-06-01T00:42:05.790Z,99.90
2019-06-01T00:44:37.440Z,99.90
2019-06-01T00:47:10.024Z,99.90
2019-06-01T00:49:42.673Z,99.90
2019-06-01T00:52:14.595Z,99.90
2019-06-01T00:54:47.253Z,99.90
2019-06-01T00:57:21.914Z,99.90
2019-06-01T00:59:53.152Z,99.90
2019-06-01T01:02:25.037Z,99.90
2019-06-01T01:05:17.602Z,99.90
2019-06-01T01:07:49.147Z,99.90
2019-06-01T01:10:20.621Z,99.90
2019-06-01T01:13:10.373Z,99.90
2019-06-01T01:15:41.646Z,99.90
2019-06-01T01:18:13.335Z,99.90
2019-06-01T01:20:45.931Z,99.90
2019-06-01T01:23:17.879Z,99.90
2019-06-01T01:25:48.961Z,99.90
2019-06-01T01:28:23.804Z,99.90
2019-06-01T01:31:06.812Z,99.90
2019-06-01T01:33:26.631Z,99.90
2019-06-01T01:35:58.311Z,99.90
2019-06-01T01:38:29.995Z,99.90
2019-06-01T01:41:01.564Z,99.90
2019-06-01T01:43:32.789Z,99.90
2019-06-01T01:46:04.854Z,99.90
2019-06-01T01:48:36.102Z,99.90
2019-06-01T01:51:07.635Z,99.90
2019-06-01T01:53:39.364Z,99.90
2019-06-01T01:56:10.626Z,99.90
2019-06-01T01:58:42.740Z,99.90
2019-06-01T02:01:22.378Z,99.90
2019-06-01T02:03:47.590Z,99.90
2019-06-01T02:06:18.859Z,99.90
2019-06-01T02:08:50.983Z,99.90
2019-06-01T02:11:22.738Z,99.90
2019-06-01T02:13:53.978Z,99.90
2019-06-01T02:16:25.844Z,99.90
2019-06-01T02:18:57.544Z,99.90
2019-06-01T02:21:30.422Z,99.90
2019-06-01T02:24:01.430Z,99.90
2019-06-01T02:26:32.670Z,99.90
2019-06-01T02:29:04.462Z,99.90
2019-06-01T02:31:42.123Z,99.90
2019-06-01T02:34:09.605Z,99.90
2019-06-01T02:36:40.657Z,99.90
2019-06-01T02:39:14.039Z,99.90
2019-06-01T02:41:46.062Z,99.90
2019-06-01T02:44:17.957Z,99.90
2019-06-01T02:46:49.506Z,99.90
2019-06-01T02:49:21.105Z,99.90
2019-06-01T02:51:52.986Z,99.90
2019-06-01T02:54:24.210Z,99.90
2019-06-01T02:56:56.392Z,99.90
2019-06-01T02:59:27.973Z,99.90
2019-06-01T03:02:04.814Z,99.90
2019-06-01T03:04:31.780Z,99.90
2019-06-01T03:07:05.543Z,99.90
2019-06-01T03:09:39.847Z,99.90
2019-06-01T03:12:14.149Z,99.90
2019-06-01T03:14:48.979Z,99.90
2019-06-01T03:17:21.691Z,99.90
2019-06-01T03:19:54.296Z,99.90
2019-06-01T03:22:26.780Z,99.90
2019-06-01T03:25:02.061Z,99.90
2019-06-01T03:27:34.335Z,99.90
2019-06-01T03:30:14.504Z,99.90
2019-06-01T03:32:43.159Z,99.90
2019-06-01T03:35:14.467Z,99.90
2019-06-01T03:37:45.684Z,99.90
2019-06-01T03:40:23.773Z,99.90
2019-06-01T03:42:50.578Z,99.90
2019-06-01T03:45:22.155Z,99.90
2019-06-01T03:47:53.551Z,99.90
2019-06-01T03:50:25.405Z,99.90
2019-06-01T03:52:57.751Z,99.90
2019-06-01T03:55:29.006Z,99.90
2019-06-01T03:58:01.009Z,99.90
2019-06-01T04:00:32.668Z,99.90
2019-06-01T04:03:03.953Z,99.90
2019-06-01T04:05:36.522Z,99.90
2019-06-01T04:08:08.197Z,99.90
2019-06-01T04:10:39.496Z,99.90
2019-06-01T04:13:11.915Z,99.90
2019-06-01T04:15:43.935Z,99.90
2019-06-01T04:18:15.810Z,99.90
2019-06-01T04:20:47.492Z,99.90
2019-06-01T04:23:18.871Z,99.90
2019-06-01T04:25:50.128Z,99.90
2019-06-01T04:28:21.788Z,99.90
2019-06-01T04:30:53.143Z,99.90
2019-06-01T04:33:24.131Z,99.90
2019-06-01T04:35:55.356Z,99.90
2019-06-01T04:38:26.055Z,99.90
2019-06-01T04:40:56.979Z,99.90
2019-06-01T04:43:28.520Z,99.90
2019-06-01T04:45:59.794Z,99.90
2019-06-01T04:48:31.017Z,99.90
2019-06-01T04:51:02.517Z,99.90
2019-06-01T04:53:34.058Z,99.90
2019-06-01T04:56:05.296Z,99.90
2019-06-01T04:58:36.851Z,99.90
2019-06-01T05:01:08.962Z,99.90
2019-06-01T05:03:40.317Z,99.90
2019-06-01T05:06:11.613Z,99.90
2019-06-01T05:08:43.370Z,99.90
2019-06-01T05:11:15.685Z,99.90
2019-06-01T05:13:47.072Z,99.90
2019-06-01T05:16:18.607Z,99.90
2019-06-01T05:18:49.591Z,99.90
2019-06-01T05:21:21.085Z,99.90
2019-06-01T05:23:52.363Z,99.90
2019-06-01T05:26:23.903Z,99.90
2019-06-01T05:28:54.893Z,99.90
2019-06-01T05:31:26.121Z,99.90
2019-06-01T05:33:57.969Z,99.90
2019-06-01T05:36:29.645Z,99.90
2019-06-01T05:39:00.948Z,99.90
2019-06-01T05:41:32.221Z,99.90
2019-06-01T05:44:03.743Z,99.90
2019-06-01T05:46:35.303Z,99.90
2019-06-01T05:49:07.372Z,99.90
2019-06-01T05:51:38.376Z,99.90
2019-06-01T05:54:10.473Z,99.90
2019-06-01T05:56:42.630Z,99.90
2019-06-01T05:59:14.520Z,99.90
2019-06-01T06:01:45.807Z,99.90
2019-06-01T06:04:17.556Z,99.90
2019-06-01T06:06:48.680Z,99.90
2019-06-01T06:09:21.461Z,99.90
2019-06-01T06:11:54.035Z,99.90
2019-06-01T06:14:25.925Z,99.90
2019-06-01T06:16:56.925Z,99.90
2019-06-01T06:19:28.769Z,99.90
2019-06-01T06:22:00.180Z,99.90
2019-06-01T06:24:31.477Z,99.90
2019-06-01T06:27:02.539Z,99.90
2019-06-01T06:29:34.409Z,99.90
2019-06-01T06:32:05.707Z,99.90
2019-06-01T06:34:36.731Z,99.90
2019-06-01T06:37:08.090Z,99.90
2019-06-01T06:39:39.371Z,99.90
2019-06-01T06:42:10.947Z,99.90
2019-06-01T06:44:42.228Z,99.90
2019-06-01T06:47:14.694Z,99.90
2019-06-01T06:49:46.104Z,99.90
2019-06-01T06:52:19.405Z,99.90
2019-06-01T06:54:51.108Z,99.90
2019-06-01T06:57:24.134Z,99.90
2019-06-01T06:59:56.449Z,99.90
2019-06-01T07:02:28.313Z,99.90
2019-06-01T07:05:00.208Z,99.90
2019-06-01T07:07:31.943Z,99.90
2019-06-01T07:10:03.489Z,99.90
2019-06-01T07:12:35.967Z,99.90
2019-06-01T07:15:07.728Z,99.90
2019-06-01T07:17:39.337Z,99.90
2019-06-01T07:20:11.203Z,99.90
2019-06-01T07:22:42.746Z,99.90
2019-06-01T07:25:14.594Z,99.90
2019-06-01T07:27:46.739Z,99.90
2019-06-01T07:30:20.069Z,99.90
2019-06-01T07:32:52.106Z,99.90
2019-06-01T07:35:22.593Z,99.90
2019-06-01T07:37:53.578Z,99.90
2019-06-01T07:40:25.044Z,99.90
2019-06-01T07:42:56.768Z,99.90
2019-06-01T07:45:29.044Z,99.90
2019-06-01T07:48:01.317Z,99.90
2019-06-01T07:50:32.602Z,99.90
2019-06-01T07:53:03.886Z,99.90
2019-06-01T07:55:35.251Z,99.90
2019-06-01T07:58:06.672Z,99.90
2019-06-01T08:00:38.208Z,99.90
2019-06-01T08:03:10.133Z,99.90
2019-06-01T08:05:41.445Z,99.90
2019-06-01T08:08:13.054Z,99.90
2019-06-01T08:10:45.138Z,99.90
2019-06-01T08:13:17.291Z,99.90
2019-06-01T08:15:48.642Z,99.90
2019-06-01T08:18:20.232Z,99.90
2019-06-01T08:20:52.044Z,99.90
2019-06-01T08:23:24.120Z,99.90
2019-06-01T08:25:55.861Z,99.90
2019-06-01T08:28:29.053Z,99.90
2019-06-01T08:31:00.863Z,99.90
2019-06-01T08:33:34.642Z,99.90
2019-06-01T08:36:05.907Z,99.90
2019-06-01T08:38:37.351Z,99.90
2019-06-01T08:41:09.238Z,99.90
2019-06-01T08:43:41.400Z,99.90
2019-06-01T08:46:12.929Z,99.90
2019-06-01T08:48:44.571Z,99.90
2019-06-01T08:51:15.293Z,99.90
2019-06-01T08:53:47.063Z,99.90
2019-06-01T08:56:21.660Z,99.90
2019-06-01T08:58:51.547Z,99.90
2019-06-01T09:01:24.525Z,99.90
2019-06-01T09:03:55.878Z,99.90
2019-06-01T09:06:29.035Z,99.90
2019-06-01T09:09:00.834Z,99.90
2019-06-01T09:11:33.265Z,99.90
2019-06-01T09:14:04.809Z,99.90
2019-06-01T09:16:36.364Z,99.90
2019-06-01T09:19:11.172Z,99.90
2019-06-01T09:21:41.052Z,99.90
2019-06-01T09:24:12.838Z,99.90
2019-06-01T09:26:44.425Z,99.90
2019-06-01T09:29:15.404Z,99.90
2019-06-01T09:31:47.165Z,99.90
2019-06-01T09:34:18.815Z,99.90
2019-06-01T09:36:50.293Z,99.90
2019-06-01T09:39:21.347Z,99.90
2019-06-01T09:41:53.301Z,99.90
2019-06-01T09:44:26.577Z,99.90
2019-06-01T09:46:58.160Z,99.90
2019-06-01T09:49:29.773Z,99.90
2019-06-01T09:52:01.334Z,99.90
2019-06-01T09:54:34.428Z,99.90
2019-06-01T09:57:06.233Z,99.90
2019-06-01T09:59:38.196Z,99.90
2019-06-01T10:02:09.518Z,99.90
2019-06-01T10:04:41.238Z,99.90
2019-06-01T10:07:12.805Z,99.90
2019-06-01T10:09:45.052Z,99.90
2019-06-01T10:12:17.114Z,99.90
2019-06-01T10:14:48.484Z,99.90
2019-06-01T10:17:20.007Z,99.90
2019-06-01T10:19:51.663Z,99.90
2019-06-01T10:22:22.681Z,99.90
2019-06-01T10:24:53.697Z,99.90
2019-06-01T10:27:25.457Z,99.90
2019-06-01T10:29:57.013Z,99.90
2019-06-01T10:32:29.316Z,99.90
2019-06-01T10:35:00.860Z,99.90
2019-06-01T10:37:33.331Z,99.90
2019-06-01T10:40:04.778Z,99.90
2019-06-01T10:42:37.858Z,99.90
2019-06-01T10:45:10.912Z,99.90
2019-06-01T10:47:42.365Z,99.90
2019-06-01T10:50:17.310Z,99.90
2019-06-01T10:52:48.853Z,99.90
2019-06-01T10:55:20.706Z,99.90
2019-06-01T10:57:52.667Z,99.90
2019-06-01T11:00:37.892Z,99.90
2019-06-01T11:02:58.328Z,96.90
2019-06-01T11:05:30.032Z,99.80
2019-06-01T11:08:01.256Z,94.30
2019-06-01T11:10:32.796Z,97.50
2019-06-01T11:13:04.340Z,99.40
2019-06-01T11:15:36.984Z,95.80
2019-06-01T11:18:08.302Z,98.00
2019-06-01T11:20:39.671Z,97.30
2019-06-01T11:23:10.953Z,98.30
2019-06-01T11:25:43.787Z,96.20
2019-06-01T11:28:15.498Z,97.70
2019-06-01T11:30:46.773Z,98.50
2019-06-01T11:33:18.631Z,94.20
2019-06-01T11:35:50.236Z,95.80
2019-06-01T11:38:21.541Z,98.20
2019-06-01T11:40:53.613Z,95.30
2019-06-01T11:43:25.248Z,97.20
2019-06-01T11:45:56.522Z,99.00
2019-06-01T11:48:27.993Z,98.80
2019-06-01T11:50:59.642Z,93.40
2019-06-01T11:53:31.553Z,93.10
2019-06-01T11:56:03.358Z,94.60
2019-06-01T11:58:35.247Z,92.60
2019-06-01T12:01:07.393Z,94.60
2019-06-01T12:03:39.681Z,92.70
2019-06-01T12:06:12.145Z,92.90
2019-06-01T12:08:44.070Z,93.70
2019-06-01T12:11:16.081Z,92.50
2019-06-01T12:13:47.131Z,89.90
2019-06-01T12:16:18.407Z,88.90
2019-06-01T12:18:49.649Z,90.00
2019-06-01T12:21:21.226Z,82.30
2019-06-01T12:23:52.818Z,86.30
2019-06-01T12:26:24.471Z,84.50
2019-06-01T12:28:56.892Z,84.20
2019-06-01T12:31:29.339Z,84.70
2019-06-01T12:34:01.529Z,84.00
2019-06-01T12:36:33.566Z,86.90
2019-06-01T12:39:14.147Z,80.30
2019-06-01T12:41:45.830Z,78.60
2019-06-01T12:44:17.683Z,82.90
2019-06-01T12:46:49.407Z,79.90
2019-06-01T12:49:21.497Z,84.50
2019-06-01T12:51:53.247Z,84.20
2019-06-01T12:54:25.311Z,82.40
2019-06-01T12:56:55.933Z,89.90
2019-06-01T12:59:28.946Z,90.10
2019-06-01T13:02:00.781Z,90.10
2019-06-01T13:04:32.415Z,91.90
2019-06-01T13:07:03.662Z,80.50
2019-06-01T13:09:35.176Z,86.80
2019-06-01T13:12:07.305Z,86.10
2019-06-01T13:14:38.593Z,86.90
2019-06-01T13:17:09.602Z,78.70
2019-06-01T13:19:41.379Z,76.00
2019-06-01T13:22:12.685Z,83.30
2019-06-01T13:24:45.731Z,76.90
2019-06-01T13:27:17.906Z,79.50
2019-06-01T13:29:50.215Z,77.50
2019-06-01T13:32:22.048Z,78.50
2019-06-01T13:34:53.721Z,76.30
2019-06-01T13:37:25.614Z,76.60
2019-06-01T13:39:58.343Z,72.60
2019-06-01T13:42:30.583Z,74.40
2019-06-01T13:45:01.994Z,74.00
2019-06-01T13:47:34.059Z,75.50
2019-06-01T13:50:06.853Z,81.50
2019-06-01T13:52:39.599Z,82.30
2019-06-01T13:55:11.758Z,77.40
2019-06-01T13:57:44.125Z,79.10
2019-06-01T14:00:29.404Z,78.60
2019-06-01T14:02:53.827Z,81.90
2019-06-01T14:05:40.512Z,80.70
2019-06-01T14:08:27.578Z,75.60
2019-06-01T14:10:45.162Z,76.40
2019-06-01T14:13:16.770Z,76.20
2019-06-01T14:15:49.498Z,76.80
2019-06-01T14:18:21.089Z,72.60
2019-06-01T14:20:53.637Z,75.70
2019-06-01T14:23:25.626Z,74.80
2019-06-01T14:25:56.927Z,73.70
2019-06-01T14:28:28.239Z,78.20
2019-06-01T14:30:59.796Z,73.20
2019-06-01T14:33:31.486Z,72.30
2019-06-01T14:36:02.835Z,73.60
2019-06-01T14:38:46.501Z,82.10
2019-06-01T14:41:08.087Z,77.80
2019-06-01T14:43:39.377Z,74.90
2019-06-01T14:46:10.873Z,73.20
2019-06-01T14:48:42.783Z,71.20
2019-06-01T14:51:14.601Z,71.20
2019-06-01T14:53:47.496Z,76.60
2019-06-01T14:56:19.276Z,67.10
2019-06-01T14:58:50.308Z,67.70
2019-06-01T15:01:32.415Z,63.40
2019-06-01T15:03:56.964Z,65.50
2019-06-01T15:06:28.896Z,67.70
2019-06-01T15:09:16.034Z,65.20
2019-06-01T15:11:34.096Z,70.10
2019-06-01T15:14:05.806Z,69.10
2019-06-01T15:16:37.151Z,71.80
2019-06-01T15:19:08.337Z,72.50
2019-06-01T15:21:39.786Z,70.00
2019-06-01T15:24:10.728Z,73.70
2019-06-01T15:26:42.690Z,72.20
2019-06-01T15:29:14.137Z,66.50
2019-06-01T15:31:45.788Z,71.60
2019-06-01T15:34:17.521Z,65.10
2019-06-01T15:36:49.078Z,64.70
2019-06-01T15:39:24.628Z,65.40
2019-06-01T15:41:55.157Z,66.10
2019-06-01T15:44:26.717Z,68.90
2019-06-01T15:46:59.602Z,67.80
2019-06-01T15:49:31.159Z,68.70
2019-06-01T15:52:02.202Z,66.90
2019-06-01T15:54:33.564Z,66.60
2019-06-01T15:57:05.184Z,69.20
2019-06-01T15:59:37.145Z,66.10
2019-06-01T16:02:08.886Z,69.90
2019-06-01T16:04:40.239Z,68.40
2019-06-01T16:07:12.150Z,70.00
2019-06-01T16:09:43.739Z,65.80
2019-06-01T16:12:15.744Z,66.10
2019-06-01T16:14:46.894Z,69.90
2019-06-01T16:17:18.223Z,66.30
2019-06-01T16:19:49.509Z,66.00
2019-06-01T16:22:20.517Z,67.80
2019-06-01T16:24:52.335Z,70.00
2019-06-01T16:27:24.004Z,67.80
2019-06-01T16:29:56.817Z,69.10
2019-06-01T16:32:28.799Z,67.80
2019-06-01T16:35:01.008Z,68.90
2019-06-01T16:37:32.611Z,69.90
2019-06-01T16:40:07.690Z,70.00
2019-06-01T16:42:36.438Z,69.80
2019-06-01T16:45:08.008Z,72.10
2019-06-01T16:47:39.549Z,66.50
2019-06-01T16:50:11.356Z,64.70
2019-06-01T16:52:43.090Z,70.50
2019-06-01T16:55:14.786Z,68.50
2019-06-01T16:57:46.644Z,72.50
2019-06-01T17:00:18.529Z,70.00
2019-06-01T17:02:50.272Z,71.50
2019-06-01T17:05:22.095Z,71.50
2019-06-01T17:07:53.979Z,68.40
2019-06-01T17:10:26.829Z,67.90
2019-06-01T17:13:00.227Z,66.70
2019-06-01T17:15:32.099Z,65.80
2019-06-01T17:18:07.031Z,67.90
2019-06-01T17:21:05.579Z,71.50
2019-06-01T17:23:37.308Z,68.00
2019-06-01T17:26:09.409Z,66.00
2019-06-01T17:28:41.256Z,69.60
2019-06-01T17:31:13.607Z,68.20
2019-06-01T17:33:44.878Z,68.80
2019-06-01T17:36:16.177Z,71.10
2019-06-01T17:38:47.545Z,72.70
2019-06-01T17:41:18.845Z,74.80
2019-06-01T17:43:50.257Z,72.30
2019-06-01T17:46:21.671Z,72.60
2019-06-01T17:48:53.195Z,68.20
2019-06-01T17:51:25.617Z,70.40
2019-06-01T17:53:57.527Z,70.20
2019-06-01T17:56:29.660Z,70.20
2019-06-01T17:59:01.285Z,72.00
2019-06-01T18:01:33.305Z,73.90
2019-06-01T18:04:05.915Z,73.70
2019-06-01T18:06:38.153Z,76.80
2019-06-01T18:09:10.584Z,74.30
2019-06-01T18:11:42.337Z,74.80
2019-06-01T18:14:14.211Z,77.20
2019-06-01T18:16:46.157Z,77.90
2019-06-01T18:19:17.217Z,79.00
2019-06-01T18:21:49.163Z,79.50
2019-06-01T18:24:21.144Z,78.60
2019-06-01T18:26:53.235Z,83.10
2019-06-01T18:29:24.973Z,84.40
2019-06-01T18:31:56.750Z,85.40
2019-06-01T18:34:27.800Z,86.50
2019-06-01T18:36:59.758Z,88.00
2019-06-01T18:39:32.088Z,90.10
2019-06-01T18:42:03.782Z,92.20
2019-06-01T18:44:35.325Z,93.40
2019-06-01T18:47:07.807Z,96.20
2019-06-01T18:49:39.495Z,96.20
2019-06-01T18:52:11.240Z,98.20
2019-06-01T18:54:42.702Z,99.90
2019-06-01T18:57:19.224Z,99.90
2019-06-01T18:59:48.491Z,99.90
2019-06-01T19:02:20.337Z,99.90
2019-06-01T19:04:51.957Z,99.90
2019-06-01T19:07:24.821Z,99.90
2019-06-01T19:09:56.977Z,99.90
2019-06-01T19:12:27.964Z,99.90
2019-06-01T19:14:59.577Z,99.90
2019-06-01T19:17:31.415Z,99.90
2019-06-01T19:20:03.863Z,99.90
2019-06-01T19:22:35.259Z,99.90
2019-06-01T19:25:09.103Z,99.90
2019-06-01T19:27:40.808Z,99.90
2019-06-01T19:30:15.077Z,99.90
2019-06-01T19:32:47.099Z,99.90
2019-06-01T19:35:21.583Z,99.90
2019-06-01T19:37:53.525Z,99.90
2019-06-01T19:40:32.551Z,99.90
2019-06-01T19:43:03.780Z,99.90
2019-06-01T19:45:35.182Z,99.90
2019-06-01T19:48:10.052Z,99.90
2019-06-01T19:50:42.202Z,99.90
2019-06-01T19:53:14.777Z,99.90
2019-06-01T19:55:46.228Z,99.90
2019-06-01T19:58:19.123Z,99.90
2019-06-01T20:00:50.615Z,99.90
2019-06-01T20:03:23.795Z,99.90
2019-06-01T20:05:55.760Z,99.90
2019-06-01T20:08:27.308Z,99.90
2019-06-01T20:10:59.214Z,99.90
2019-06-01T20:13:31.057Z,99.90
2019-06-01T20:16:03.492Z,99.90
2019-06-01T20:18:35.286Z,99.90
2019-06-01T20:21:07.460Z,99.90
2019-06-01T20:23:39.125Z,99.90
2019-06-01T20:26:11.279Z,99.90
2019-06-01T20:28:43.094Z,99.90
2019-06-01T20:31:15.742Z,99.90
2019-06-01T20:33:47.391Z,99.90
2019-06-01T20:36:20.185Z,99.90
2019-06-01T20:38:51.608Z,99.90
2019-06-01T20:41:23.608Z,99.90
2019-06-01T20:43:55.767Z,99.90
2019-06-01T20:46:27.516Z,99.90
2019-06-01T20:48:58.538Z,99.90
2019-06-01T20:51:29.490Z,99.90
2019-06-01T20:54:01.688Z,99.90
2019-06-01T20:56:33.912Z,99.90
2019-06-01T20:59:05.837Z,99.90
2019-06-01T21:01:37.871Z,99.90
2019-06-01T21:04:09.285Z,99.90
2019-06-01T21:06:41.041Z,99.90
2019-06-01T21:09:13.722Z,99.90
2019-06-01T21:11:45.752Z,99.90
2019-06-01T21:14:17.646Z,99.90
2019-06-01T21:16:49.520Z,99.90
2019-06-01T21:19:20.781Z,99.90
2019-06-01T21:21:52.403Z,99.90
2019-06-01T21:24:23.387Z,99.90
2019-06-01T21:26:54.951Z,99.90
2019-06-01T21:29:25.919Z,99.90
2019-06-01T21:31:57.841Z,99.90
2019-06-01T21:34:29.393Z,99.90
2019-06-01T21:37:00.677Z,99.90
2019-06-01T21:39:31.474Z,99.90
2019-06-01T21:42:03.113Z,99.90
2019-06-01T21:44:34.816Z,99.90
2019-06-01T21:47:06.878Z,99.90
2019-06-01T21:49:37.839Z,99.90
2019-06-01T21:52:09.596Z,99.90
2019-06-01T21:54:40.842Z,99.90
2019-06-01T21:57:12.809Z,99.90
2019-06-01T21:59:44.358Z,99.90
2019-06-01T22:02:16.850Z,99.90
2019-06-01T22:04:47.997Z,99.90
2019-06-01T22:07:19.561Z,99.90
2019-06-01T22:09:51.041Z,99.90
2019-06-01T22:12:23.633Z,99.90
2019-06-01T22:14:55.420Z,99.90
2019-06-01T22:17:27.933Z,99.90
2019-06-01T22:19:59.922Z,99.90
2019-06-01T22:22:31.589Z,99.90
2019-06-01T22:25:02.565Z,99.90
2019-06-01T22:27:33.590Z,99.90
2019-06-01T22:30:06.651Z,99.90
2019-06-01T22:32:38.793Z,99.90
2019-06-01T22:35:10.857Z,99.90
2019-06-01T22:37:42.960Z,99.90
2019-06-01T22:40:14.773Z,99.90
2019-06-01T22:42:46.036Z,99.90
2019-06-01T22:45:18.518Z,99.90
2019-06-01T22:47:50.090Z,99.90
2019-06-01T22:50:22.637Z,99.90
2019-06-01T22:52:54.419Z,99.90
2019-06-01T22:55:26.306Z,99.90
2019-06-01T22:57:58.030Z,99.90
2019-06-01T23:00:29.889Z,99.90
2019-06-01T23:03:01.868Z,99.90
2019-06-01T23:05:33.416Z,99.90
2019-06-01T23:08:04.476Z,99.90
2019-06-01T23:10:36.075Z,99.90
2019-06-01T23:13:07.777Z,99.90
2019-06-01T23:15:39.006Z,99.90
2019-06-01T23:18:10.690Z,99.90
2019-06-01T23:20:42.514Z,99.90
2019-06-01T23:23:13.536Z,99.90
2019-06-01T23:25:45.449Z,99.90
2019-06-01T23:28:16.978Z,99.90
2019-06-01T23:30:48.859Z,99.90
2019-06-01T23:33:20.694Z,99.90
2019-06-01T23:35:52.254Z,99.90
2019-06-01T23:38:24.563Z,99.90
2019-06-01T23:40:55.914Z,99.90
2019-06-01T23:43:28.896Z,99.90
2019-06-01T23:46:00.501Z,99.90
2019-06-01T23:48:33.993Z,99.90
2019-06-01T23:51:04.911Z,99.90
2019-06-01T23:53:36.458Z,99.90
2019-06-01T23:56:08.053Z,99.90
2019-06-01T23:58:39.642Z,99.90
